Brownfield, Texas
Current Conditions -  °F | °C
As of 12:15 AM on Sunday 26 Oct 2014 (Local Time) from KGNC Reporting Station
Clear Clear  
Wind Chill: 63°   Ceiling: Unl
Heat Index: 63°   Visibility: 10mi
Dew Point: 52°   Wind: 8mph
Humidity: 69%   Direction: 190°S
Pressure: 30.12"   Gusts: NA
Location:  33.18°N, 102.27°W
Report Text: KGNC 260515Z AUTO 19007KT 10SM CLR 17/11 A3012 RMK AO2 T01700112
Loading
Personal Weather Stations






























Interactive Weather Map
Tropical Storm Tracking
New forecast layout! Learn more

10-Day Weather Forecast

Advertisements
Track Severe Weather on mobile